Glenwood, MN

7:29 AM CST on February 07, 2016 (GMT -0600)
Krueger Compound | | Change Station
CLOSE
Current Station
Personal Weather Station
Location: Glenwood, MN
Elevation: 1293 ft
Nearby Weather Stations
Active Advisory: Winter Storm Warning

Elev 1293 ft 45.60 °N, 95.42 °W | Updated 7 minutes ago

Overcast
Overcast
34.2 °F
Feels Like 28 °F
N
7.8
Wind Variable Wind from West

Today
High -- | Low -- °F
--% Chance of Precip.
Yesterday
High -- | Low -- °F
Precip. -- in
Pressure 29.62 in
Visibility 10.0 miles
Clouds Scattered Clouds 4000 ft
Mostly Cloudy 5000 ft
Windchill 28 °F
Dew Point 27 °F
Humidity 74%
Rainfall 0.00 in
Snow Depth Not available.
7:35 AM 5:36 PM
Waning Crescent, 2% visible
METAR KGHW 071314Z AUTO 27021G29KT 10SM SCT040 BKN050 02/M03 A2962 RMK AO2
Pressure 29.62 in
Visibility 10.0 miles
Clouds Scattered Clouds 4000 ft
Mostly Cloudy 5000 ft
Windchill 28 °F
Dew Point 27 °F
Humidity 74%
Rainfall 0.00 in
Snow Depth Not available.
7:35 AM 5:36 PM
Waning Crescent, 2% visible
METAR KGHW 071314Z AUTO 27021G29KT 10SM SCT040 BKN050 02/M03 A2962 RMK AO2

10-Day Weather Forecast

Almanac

Astronomy

Feb. 07, 2016 Rise Set
Actual Time
Civil Twilight
Nautical Twilight
Astronomical Twilight
Moon
Length of Visible Light
Length of Day
Tomorrow will be .
, % of the Moon is Illuminated

Today's Extremes

State Highs State Lows

Community

WunderPhotos

Upload Photos

1,891,190 photos uploaded!

WunderBlog® & News

Nearby

Air Quality

  Air Quality AQ Index Pollutant
Not available.

Snow Depth

Station Depth Elevation

Earthquake Activity

City Distance Mag. Time & Date
Minimum magnitude displayed is 2.5.

Coastal Water Temperatures

Place Temperature

Stations

Nearby Weather Stations

Station Location Temp. Windchill Dew Point Humidity Wind Precip. Elev Updated Type
                   

Watches & Warnings

Winter Storm Warning
Issued: 2:54 AM CST Feb. 7, 2016 – National Weather Service

... Winter Storm Warning now in effect from 2 PM this afternoon to
noon CST Monday...

* expect light snow to develop around 2 PM this afternoon and
then diminish around noon Monday.

* Snow accumulations around an inch are expected.

* Winds gusting as high as 55 mph will cause widespread blowing
and drifting snow in areas with better snow pack.

* Plan on very difficult travel.

Precautionary/preparedness actions...

A Winter Storm Warning for snow means severe winter weather
conditions are expected. If you must travel... keep an extra
flashlight... food... and water in your vehicle in case of an
emergency. The latest Road conditions for the state you are
calling from can be obtained by calling 5 1 1.